Time;durP1;ratioP1;P1;durP2;ratioP2;P2;SDS_P1;SDS_P2;PMS_P1;PMS_P2;Temp;Humidity;BMP_temperature;BMP_pressure;BME280_temperature;BME280_humidity;BME280_pressure;Samples;Min_cycle;Max_cycle;Signal;HPM_P1;HPM_P2
2021/11/06 00:01:15;;;;;;;10.70;7.62;;;;;;;11.19;83.16;100045.36;1748600;82;21030;-67
2021/11/06 00:03:41;;;;;;;12.73;7.08;;;;;;;11.08;83.09;100045.59;1737082;80;21474;-67
2021/11/06 00:06:08;;;;;;;12.53;7.47;;;;;;;10.99;83.00;100046.64;1777962;81;21565;-67
2021/11/06 00:08:34;;;;;;;13.05;7.90;;;;;;;10.94;82.96;100060.25;1767644;81;20932;-67
2021/11/06 00:11:00;;;;;;;14.33;8.13;;;;;;;10.87;82.89;100058.32;1753399;80;21064;-67
2021/11/06 00:13:26;;;;;;;;;;;;;;;10.77;82.79;100056.91;1770028;80;20951;-68
2021/11/06 00:15:55;;;;;;;9.68;6.50;;;;;;;10.67;82.70;100039.14;1754684;81;20113;-67
2021/11/06 00:18:22;;;;;;;11.90;6.85;;;;;;;10.53;82.80;100047.50;1764590;80;20995;-67
2021/11/06 00:20:49;;;;;;;11.78;7.45;;;;;;;10.45;82.56;100053.72;1747954;80;21024;-67
2021/11/06 00:23:15;;;;;;;8.55;6.15;;;;;;;10.41;82.45;100063.52;1745641;81;21487;-67
2021/11/06 00:25:42;;;;;;;11.60;5.92;;;;;;;10.38;82.17;100061.30;1775224;81;21499;-67
2021/11/06 00:28:08;;;;;;;9.20;6.40;;;;;;;10.34;82.08;100055.31;1749976;81;21006;-67
2021/11/06 00:30:35;;;;;;;8.38;5.50;;;;;;;10.26;81.71;100061.23;1765379;80;21022;-66
2021/11/06 00:33:01;;;;;;;8.48;5.62;;;;;;;10.16;81.60;100067.42;1763159;81;21006;-66
2021/11/06 00:35:28;;;;;;;;;;;;;;;10.11;81.37;100078.23;1778424;81;21031;-66
2021/11/06 00:37:54;;;;;;;10.13;5.78;;;;;;;10.05;81.19;100072.47;1767258;81;20138;-67
2021/11/06 00:40:20;;;;;;;8.85;5.40;;;;;;;9.92;81.22;100068.81;1756443;81;21493;-66
2021/11/06 00:42:46;;;;;;;8.88;5.53;;;;;;;9.84;81.20;100069.30;1775577;81;21569;-67
2021/11/06 00:45:13;;;;;;;8.30;5.25;;;;;;;9.80;81.19;100070.90;1750254;81;21506;-66
2021/11/06 00:47:40;;;;;;;8.50;5.47;;;;;;;9.76;81.16;100069.23;1772186;80;21054;-67
2021/11/06 00:50:08;;;;;;;9.03;5.75;;;;;;;9.71;81.03;100061.02;1776818;81;21023;-67
2021/11/06 00:52:35;;;;;;;7.78;5.28;;;;;;;9.68;80.87;100060.72;1747430;82;21074;-66
2021/11/06 00:55:02;;;;;;;8.73;5.42;;;;;;;9.64;80.98;100055.51;1772810;81;21050;-66
2021/11/06 00:57:29;;;;;;;8.93;4.97;;;;;;;9.62;80.66;100065.30;1754096;81;21021;-67
2021/11/06 00:59:56;;;;;;;7.60;5.05;;;;;;;9.51;80.63;100075.78;1754877;81;21574;-66
2021/11/06 01:02:22;;;;;;;6.80;4.47;;;;;;;9.46;80.75;100077.91;1753340;81;21045;-66
2021/11/06 01:04:48;;;;;;;8.40;4.87;;;;;;;9.46;80.44;100070.28;1756317;81;21031;-66
2021/11/06 01:07:16;;;;;;;6.67;4.58;;;;;;;9.41;80.18;100079.23;1754732;80;21112;-66
2021/11/06 01:09:42;;;;;;;7.25;4.50;;;;;;;9.36;80.13;100075.08;1747967;81;21532;-66
2021/11/06 01:12:09;;;;;;;7.17;4.53;;;;;;;9.37;80.02;100082.70;1747670;81;21688;-66
2021/11/06 01:14:35;;;;;;;6.80;4.20;;;;;;;9.33;79.82;100093.26;1749099;81;21054;-65
2021/11/06 01:17:01;;;;;;;;;;;;;;;9.30;79.78;100094.30;1768947;81;21421;-66
2021/11/06 01:19:28;;;;;;;8.13;4.65;;;;;;;9.27;79.63;100095.64;1777891;81;20497;-66
2021/11/06 01:21:54;;;;;;;6.87;3.98;;;;;;;9.16;79.85;100084.91;1760834;81;21511;-66
2021/11/06 01:24:20;;;;;;;;;;;;;;;9.15;79.99;100091.41;1776834;81;21055;-66
2021/11/06 01:26:47;;;;;;;6.60;4.40;;;;;;;9.12;79.81;100104.14;1768413;81;20105;-66
2021/11/06 01:29:13;;;;;;;6.80;4.72;;;;;;;9.02;79.95;100118.42;1759172;81;21043;-66
2021/11/06 01:31:39;;;;;;;8.28;4.67;;;;;;;8.95;79.87;100117.78;1756564;81;21023;-66
2021/11/06 01:34:06;;;;;;;7.15;5.53;;;;;;;8.89;79.69;100116.09;1761985;81;21057;-66
2021/11/06 01:36:32;;;;;;;6.97;4.50;;;;;;;8.85;79.61;100113.59;1755167;81;21028;-65
2021/11/06 01:38:58;;;;;;;8.53;4.78;;;;;;;8.79;79.44;100124.06;1752580;80;20955;-66
2021/11/06 01:41:24;;;;;;;8.13;5.03;;;;;;;8.74;79.31;100122.13;1751042;81;21063;-66
2021/11/06 01:43:51;;;;;;;6.45;4.55;;;;;;;8.73;79.13;100109.62;1764424;81;21078;-66
2021/11/06 01:46:17;;;;;;;7.95;4.78;;;;;;;8.72;79.07;100107.97;1757685;80;21043;-66
2021/11/06 01:48:44;;;;;;;9.10;4.83;;;;;;;8.69;78.90;100112.55;1748581;80;21477;-66
2021/11/06 01:51:10;;;;;;;5.83;4.22;;;;;;;8.64;78.96;100120.63;1759818;80;21627;-66
2021/11/06 01:53:36;;;;;;;7.50;4.83;;;;;;;8.61;79.15;100110.81;1750078;81;21559;-66
2021/11/06 01:56:04;;;;;;;7.87;4.90;;;;;;;8.57;79.18;100113.20;1757554;81;21062;-66
2021/11/06 01:58:30;;;;;;;7.53;4.47;;;;;;;8.57;79.05;100131.38;1778008;81;20980;-66
2021/11/06 02:00:57;;;;;;;;;;;;;;;8.55;79.10;100128.06;1777607;80;21072;-66
2021/11/06 02:03:23;;;;;;;6.22;4.30;;;;;;;8.56;78.96;100121.58;1738511;82;20131;-66
2021/11/06 02:05:51;;;;;;;6.53;4.10;;;;;;;8.42;79.09;100130.60;1774457;80;21154;-66
2021/11/06 02:08:17;;;;;;;8.75;4.25;;;;;;;8.39;78.93;100136.53;1756439;81;21039;-66
2021/11/06 02:10:45;;;;;;;7.70;4.17;;;;;;;8.41;78.63;100142.52;1757506;80;21020;-66
2021/11/06 02:13:11;;;;;;;7.22;4.45;;;;;;;8.44;78.41;100161.83;1748094;81;21012;-65
2021/11/06 02:16:40;;;;;;;6.45;4.37;;;;;;;8.54;78.25;100167.94;1788867;79;22741;-66
2021/11/06 02:19:06;;;;;;;7.87;4.90;;;;;;;8.47;78.20;100176.25;1752717;82;21047;-67
2021/11/06 02:21:36;;;;;;;8.68;5.95;;;;;;;8.43;78.22;100174.31;1752593;82;21067;-67
2021/11/06 02:24:03;;;;;;;9.65;5.40;;;;;;;8.37;78.24;100174.74;1741635;82;20978;-68
2021/11/06 02:26:30;;;;;;;7.92;4.78;;;;;;;8.36;78.40;100182.58;1715169;82;21022;-67
2021/11/06 02:28:58;;;;;;;7.03;4.33;;;;;;;8.33;78.56;100189.03;1733327;82;20978;-67
2021/11/06 02:31:24;;;;;;;8.30;4.33;;;;;;;8.32;78.77;100186.05;1709465;83;21007;-67
2021/11/06 02:33:51;;;;;;;6.47;4.33;;;;;;;8.30;78.93;100183.58;1723492;82;21002;-67
2021/11/06 02:36:18;;;;;;;8.35;4.70;;;;;;;8.29;79.10;100185.20;1748136;82;21059;-67
2021/11/06 02:38:44;;;;;;;;;;;;;;;8.28;79.21;100182.16;1755423;82;20975;-67
2021/11/06 02:41:10;;;;;;;7.25;4.58;;;;;;;8.21;79.40;100179.61;1753194;81;20106;-67
2021/11/06 02:43:37;;;;;;;8.15;4.58;;;;;;;8.14;79.84;100184.89;1752864;81;20998;-67
2021/11/06 02:46:03;;;;;;;9.20;4.87;;;;;;;8.13;79.97;100173.22;1750778;82;21043;-67
2021/11/06 02:48:30;;;;;;;6.90;4.25;;;;;;;8.14;80.05;100189.80;1748359;82;21019;-67
2021/11/06 02:50:56;;;;;;;6.72;4.30;;;;;;;8.15;80.12;100196.84;1752022;82;21032;-67
2021/11/06 02:53:22;;;;;;;6.78;4.80;;;;;;;8.14;80.00;100198.45;1732533;82;21042;-67
2021/11/06 02:55:49;;;;;;;7.40;4.78;;;;;;;8.08;80.02;100189.39;1730383;82;21071;-66
2021/11/06 02:58:15;;;;;;;;;;;;;;;8.05;80.11;100193.95;1754579;82;21347;-66
2021/11/06 03:00:42;;;;;;;11.40;5.60;;;;;;;8.06;80.12;100201.55;1729571;82;20117;-66
2021/11/06 03:03:08;;;;;;;;;;;;;;;8.01;80.14;100209.05;1729822;82;20964;-67
2021/11/06 03:05:36;;;;;;;7.25;4.97;;;;;;;8.01;80.15;100201.75;1733631;82;20115;-66
2021/11/06 03:08:03;;;;;;;7.10;3.90;;;;;;;7.98;80.26;100214.97;1740891;82;21007;-66
2021/11/06 03:10:29;;;;;;;11.25;4.47;;;;;;;7.98;80.31;100217.68;1722643;82;21027;-66
2021/11/06 03:12:57;;;;;;;7.70;4.25;;;;;;;7.98;80.29;100207.66;1738730;82;21015;-66
2021/11/06 03:15:23;;;;;;;6.62;4.47;;;;;;;7.94;80.36;100205.67;1743703;82;21092;-66
2021/11/06 03:17:50;;;;;;;;;;;;;;;7.94;80.42;100209.74;1731228;82;20972;-66
2021/11/06 03:20:18;;;;;;;8.80;4.53;;;;;;;7.97;80.38;100203.86;1739613;81;20127;-66
2021/11/06 03:22:45;;;;;;;8.40;4.53;;;;;;;7.94;80.47;100198.89;1725263;82;21051;-66
2021/11/06 03:25:12;;;;;;;9.13;4.67;;;;;;;7.96;80.52;100192.72;1651193;86;21054;-66
2021/11/06 03:27:40;;;;;;;7.00;4.55;;;;;;;7.97;80.55;100181.61;1733053;82;20997;-66
2021/11/06 03:30:08;;;;;;;6.47;4.08;;;;;;;8.00;80.64;100187.92;1731692;82;21031;-66
2021/11/06 03:32:37;;;;;;;7.12;4.70;;;;;;;8.06;80.67;100190.18;1718081;82;21011;-66
2021/11/06 03:35:05;;;;;;;5.87;4.05;;;;;;;8.06;80.66;100198.84;1725944;82;21003;-66
2021/11/06 03:37:32;;;;;;;7.22;4.28;;;;;;;8.01;80.79;100209.05;1713500;82;21019;-66
2021/11/06 03:39:58;;;;;;;;;;;;;;;8.00;80.92;100206.08;1729942;82;21010;-66
2021/11/06 03:42:24;;;;;;;7.42;4.20;;;;;;;8.05;80.92;100207.51;1729294;82;20113;-66
2021/11/06 03:44:51;;;;;;;6.83;4.42;;;;;;;8.01;80.97;100201.75;1735239;82;21056;-66
2021/11/06 03:47:17;;;;;;;8.63;4.75;;;;;;;8.02;80.99;100203.93;1733551;82;21063;-66
2021/11/06 03:49:43;;;;;;;8.48;4.80;;;;;;;7.96;81.01;100208.98;1734362;82;21095;-66
2021/11/06 03:52:10;;;;;;;5.95;3.92;;;;;;;7.89;81.20;100198.29;1717815;82;21091;-66
2021/11/06 03:54:36;;;;;;;7.53;4.10;;;;;;;7.86;81.14;100208.80;1725506;82;21028;-66
2021/11/06 03:57:03;;;;;;;5.90;3.60;;;;;;;7.83;81.20;100204.66;1738681;82;21118;-66
2021/11/06 03:59:30;;;;;;;7.22;4.50;;;;;;;7.80;81.27;100185.35;1718273;82;21004;-66
2021/11/06 04:01:56;;;;;;;6.95;4.58;;;;;;;7.79;81.28;100196.75;1723148;82;21134;-66
2021/11/06 04:04:23;;;;;;;7.15;4.70;;;;;;;7.77;81.28;100202.10;1733748;82;21090;-66
2021/11/06 04:06:49;;;;;;;8.60;4.40;;;;;;;7.71;81.39;100202.55;1726260;82;21020;-66
2021/11/06 04:09:15;;;;;;;8.23;4.40;;;;;;;7.70;81.34;100208.20;1735219;82;21092;-66
2021/11/06 04:11:42;;;;;;;8.55;4.37;;;;;;;7.69;81.21;100219.56;1736198;82;21095;-66
2021/11/06 04:14:08;;;;;;;5.97;3.62;;;;;;;7.68;81.11;100209.81;1725582;82;21052;-66
2021/11/06 04:16:34;;;;;;;6.10;3.95;;;;;;;7.69;80.98;100214.67;1739510;81;21034;-66
2021/11/06 04:19:01;;;;;;;5.67;3.58;;;;;;;7.65;80.90;100200.78;1732147;81;21043;-66
2021/11/06 04:21:27;;;;;;;;;;;;;;;7.64;80.80;100199.16;1731615;82;21046;-65
2021/11/06 04:23:53;;;;;;;7.25;3.58;;;;;;;7.67;80.57;100201.91;1745198;82;20408;-66
2021/11/06 04:26:19;;;;;;;5.45;3.58;;;;;;;7.63;80.50;100192.61;1742434;82;21605;-65
2021/11/06 04:28:46;;;;;;;5.97;3.58;;;;;;;7.62;80.41;100193.14;1749867;82;21538;-66
2021/11/06 04:31:12;;;;;;;5.97;3.77;;;;;;;7.60;80.35;100200.70;1740737;82;21072;-66
2021/11/06 04:33:38;;;;;;;4.55;3.15;;;;;;;7.56;80.32;100204.13;1731411;82;20955;-66
2021/11/06 04:36:07;;;;;;;5.37;3.75;;;;;;;7.57;80.18;100202.55;1733889;82;21046;-66
2021/11/06 04:38:33;;;;;;;8.28;4.33;;;;;;;7.60;80.05;100197.99;1747129;82;21027;-66
2021/11/06 04:40:59;;;;;;;;;;;;;;;7.62;79.96;100195.02;1738174;82;21557;-67
2021/11/06 04:43:25;;;;;;;9.63;5.25;;;;;;;7.58;80.02;100197.95;1745877;82;20186;-66
2021/11/06 04:45:52;;;;;;;6.65;4.72;;;;;;;7.50;80.18;100193.73;1739831;82;21078;-64
2021/11/06 04:48:18;;;;;;;9.35;5.28;;;;;;;7.50;80.05;100205.92;1752491;82;21051;-66
2021/11/06 04:50:45;;;;;;;6.35;4.40;;;;;;;7.51;79.99;100202.13;1744028;82;21059;-64
2021/11/06 04:53:11;;;;;;;5.60;4.10;;;;;;;7.53;79.91;100212.73;1731328;82;21090;-65
2021/11/06 04:55:38;;;;;;;6.60;3.87;;;;;;;7.50;79.88;100218.94;1750986;82;21058;-66
2021/11/06 04:58:04;;;;;;;;;;;;;;;7.50;79.82;100219.47;1755226;82;21015;-67
2021/11/06 05:00:31;;;;;;;6.17;3.58;;;;;;;7.53;79.70;100222.22;1745795;82;20117;-67
2021/11/06 05:02:57;;;;;;;5.17;3.65;;;;;;;7.52;79.70;100226.81;1735196;82;21042;-67
2021/11/06 05:05:23;;;;;;;;;;;;;;;7.51;79.66;100225.98;1753190;82;21132;-66
2021/11/06 05:07:50;;;;;;;5.10;3.65;;;;;;;7.47;79.64;100234.85;1752585;82;20396;-66
2021/11/06 05:10:17;;;;;;;6.35;3.72;;;;;;;7.41;79.70;100233.91;1753366;82;21503;-66
2021/11/06 05:12:44;;;;;;;7.85;4.20;;;;;;;7.45;79.47;100241.02;1752728;82;21066;-66
2021/11/06 05:15:11;;;;;;;7.50;5.47;;;;;;;7.47;79.27;100236.20;1738919;81;21470;-67
2021/11/06 05:17:37;;;;;;;8.40;6.45;;;;;;;7.44;79.15;100232.59;1750916;82;21518;-67
2021/11/06 05:20:05;;;;;;;9.85;6.25;;;;;;;7.42;78.99;100238.80;1750500;82;21014;-67
2021/11/06 05:22:31;;;;;;;7.78;5.75;;;;;;;7.45;78.78;100249.98;1701472;82;21003;-66
2021/11/06 05:24:58;;;;;;;7.58;5.60;;;;;;;7.47;78.56;100245.13;1729786;82;21038;-66
2021/11/06 05:27:24;;;;;;;;;;;;;;;7.48;78.42;100245.95;1725940;82;21573;-66
2021/11/06 05:29:50;;;;;;;5.42;4.00;;;;;;;7.46;78.46;100252.16;1732222;82;20164;-66
2021/11/06 05:32:17;;;;;;;8.83;4.62;;;;;;;7.37;78.67;100248.98;1685568;85;21114;-67
2021/11/06 05:34:43;;;;;;;6.10;4.28;;;;;;;7.41;78.58;100246.09;1746482;82;20983;-67
2021/11/06 05:37:10;;;;;;;6.92;4.40;;;;;;;7.46;78.48;100247.57;1753116;82;21082;-66
2021/11/06 05:39:36;;;;;;;8.08;5.30;;;;;;;7.49;78.41;100255.21;1753238;82;20955;-66
2021/11/06 05:42:02;;;;;;;8.58;5.30;;;;;;;7.46;78.45;100248.09;1751036;82;20995;-66
2021/11/06 05:44:29;;;;;;;;;;;;;;;7.44;78.47;100252.38;1738187;82;21027;-67
2021/11/06 05:46:55;;;;;;;5.87;4.05;;;;;;;7.47;78.38;100251.11;1737090;82;20110;-66
2021/11/06 05:49:22;;;;;;;5.85;4.40;;;;;;;7.48;78.33;100263.56;1752703;82;21049;-68
2021/11/06 05:51:48;;;;;;;12.75;4.95;;;;;;;7.44;78.25;100256.45;1752901;82;21553;-67
2021/11/06 05:54:14;;;;;;;7.47;4.42;;;;;;;7.37;78.39;100256.28;1751144;82;21524;-67
2021/11/06 05:56:42;;;;;;;6.67;4.20;;;;;;;7.35;78.42;100266.54;1752531;82;21585;-67
2021/11/06 05:59:08;;;;;;;6.50;4.20;;;;;;;7.33;78.36;100269.47;1753057;82;21537;-67
2021/11/06 06:01:36;;;;;;;7.78;4.45;;;;;;;7.31;78.33;100264.01;1750502;82;21612;-67
2021/11/06 06:04:02;;;;;;;6.35;4.70;;;;;;;7.23;78.42;100265.19;1752779;82;21486;-67
2021/11/06 06:06:28;;;;;;;;;;;;;;;7.17;78.59;100274.80;1663102;85;21605;-67
2021/11/06 06:08:55;;;;;;;9.78;5.80;;;;;;;7.13;78.66;100275.80;1703709;84;20157;-68
2021/11/06 06:11:21;;;;;;;8.15;5.08;;;;;;;7.09;78.84;100282.73;1715002;84;21080;-68
2021/11/06 06:13:48;;;;;;;6.55;5.10;;;;;;;7.15;78.87;100290.47;1714497;84;21037;-67
2021/11/06 06:16:14;;;;;;;;;;;;;;;7.18;78.93;100289.47;1717557;83;21116;-67
2021/11/06 06:18:40;;;;;;;9.18;4.47;;;;;;;7.19;78.93;100297.86;1710678;83;20163;-66
2021/11/06 06:21:07;;;;;;;9.83;5.67;;;;;;;7.20;78.85;100298.16;1703565;83;21084;-67
2021/11/06 06:23:33;;;;;;;6.95;4.80;;;;;;;7.25;78.70;100298.30;1722371;83;21064;-67
2021/11/06 06:26:00;;;;;;;8.03;5.50;;;;;;;7.36;78.68;100304.77;1712868;83;21112;-67
2021/11/06 06:28:27;;;;;;;;;;;;;;;7.46;78.62;100304.98;1720200;83;21033;-67
2021/11/06 06:30:53;;;;;;;8.27;5.63;;;;;;;7.60;78.32;100312.31;1712248;83;20144;-67
2021/11/06 06:33:20;;;;;;;10.35;6.03;;;;;;;7.70;78.12;100318.78;1719519;83;21025;-67
2021/11/06 06:35:46;;;;;;;7.45;5.30;;;;;;;7.89;77.61;100315.38;1720028;83;21690;-67
2021/11/06 06:38:12;;;;;;;;;;;;;;;8.07;77.11;100312.50;1698371;84;21574;-67
2021/11/06 06:40:39;;;;;;;9.85;6.42;;;;;;;8.20;76.79;100314.09;1695819;84;20159;-67
2021/11/06 06:43:05;;;;;;;9.95;5.87;;;;;;;8.29;76.53;100311.33;1708456;83;20986;-67
2021/11/06 06:45:31;;;;;;;11.43;7.58;;;;;;;8.47;75.71;100322.77;1720793;83;20981;-67
2021/11/06 06:47:58;;;;;;;12.30;7.15;;;;;;;8.57;75.16;100321.33;1717277;83;21468;-67
2021/11/06 06:50:25;;;;;;;11.53;7.22;;;;;;;8.65;74.53;100327.16;1725515;83;21587;-66
2021/11/06 06:52:51;;;;;;;10.05;6.83;;;;;;;8.77;74.18;100323.03;1725537;83;21009;-67
2021/11/06 06:55:17;;;;;;;10.53;7.03;;;;;;;8.93;73.61;100322.20;1725298;83;21568;-67
2021/11/06 06:57:44;;;;;;;;;;;;;;;9.08;72.99;100323.81;1727725;83;21595;-67
2021/11/06 07:00:12;;;;;;;11.25;8.10;;;;;;;9.18;71.95;100325.32;1701206;84;20188;-67
2021/11/06 07:02:39;;;;;;;14.85;9.65;;;;;;;9.10;71.58;100333.91;1677932;85;21094;-67
2021/11/06 07:05:06;;;;;;;11.20;7.60;;;;;;;9.15;71.08;100326.35;1689290;84;20994;-66
2021/11/06 07:07:34;;;;;;;11.83;8.30;;;;;;;9.22;70.98;100324.29;1692181;83;21732;-66
2021/11/06 07:10:00;;;;;;;11.12;7.70;;;;;;;9.36;70.24;100330.48;1667600;84;21005;-67
2021/11/06 07:12:26;;;;;;;10.30;7.65;;;;;;;9.48;69.64;100322.24;1725084;83;21072;-67
2021/11/06 07:14:55;;;;;;;11.00;8.35;;;;;;;9.49;69.63;100327.97;1703842;84;21078;-66
2021/11/06 07:17:21;;;;;;;11.20;8.48;;;;;;;9.57;69.50;100332.13;1698204;83;21051;-67
2021/11/06 07:19:48;;;;;;;10.10;7.35;;;;;;;9.69;68.88;100331.50;1692000;84;20995;-67
2021/11/06 07:22:15;;;;;;;13.18;8.83;;;;;;;9.71;68.56;100332.05;1683171;84;21083;-67
2021/11/06 07:24:41;;;;;;;14.68;9.55;;;;;;;9.79;68.53;100327.55;1713503;84;21003;-68
2021/11/06 07:27:08;;;;;;;13.25;9.10;;;;;;;9.94;67.82;100335.91;1700054;84;21098;-67
2021/11/06 07:29:35;;;;;;;14.50;9.18;;;;;;;9.92;67.46;100326.62;1699080;84;20997;-66
2021/11/06 07:32:01;;;;;;;;;;;;;;;9.95;67.15;100323.96;1691241;84;21122;-66
2021/11/06 07:34:28;;;;;;;13.38;7.87;;;;;;;9.97;66.62;100324.52;1669655;84;20149;-69
2021/11/06 07:36:55;;;;;;;;;;;;;;;9.87;67.10;100320.31;1704685;84;21073;-69
2021/11/06 07:39:21;;;;;;;11.45;8.13;;;;;;;9.99;66.98;100322.36;1698214;84;20447;-68
2021/11/06 07:41:48;;;;;;;11.35;8.45;;;;;;;10.00;66.93;100325.36;1688229;84;21062;-68
2021/11/06 07:44:15;;;;;;;9.35;7.17;;;;;;;10.15;66.13;100338.36;1659519;86;21393;-67
2021/11/06 07:46:42;;;;;;;10.28;8.05;;;;;;;10.18;65.38;100340.03;1679025;85;21058;-67
2021/11/06 07:49:08;;;;;;;;;;;;;;;10.15;65.48;100345.16;1701156;84;21046;-66
2021/11/06 07:51:35;;;;;;;11.12;7.72;;;;;;;10.11;64.73;100355.70;1701666;84;20103;-66
2021/11/06 07:54:01;;;;;;;11.55;7.25;;;;;;;10.08;65.29;100350.77;1698767;84;21017;-65
2021/11/06 07:56:28;;;;;;;9.35;7.37;;;;;;;10.40;64.82;100353.09;1691768;84;21055;-65
2021/11/06 07:58:55;;;;;;;10.05;7.70;;;;;;;10.49;63.66;100349.34;1690708;84;21012;-65
2021/11/06 08:01:21;;;;;;;10.18;7.12;;;;;;;10.43;63.53;100347.12;1673535;85;21043;-64
2021/11/06 08:03:47;;;;;;;10.30;6.87;;;;;;;10.37;63.59;100354.97;1659659;86;21036;-66
2021/11/06 08:06:16;;;;;;;15.70;11.78;;;;;;;10.41;64.17;100363.44;1676113;85;21031;-66
2021/11/06 08:08:42;;;;;;;8.98;6.65;;;;;;;10.47;63.37;100360.52;1699104;84;21476;-65
2021/11/06 08:11:08;;;;;;;9.68;6.60;;;;;;;10.43;63.23;100359.37;1687922;84;21046;-66
2021/11/06 08:13:34;;;;;;;8.10;6.17;;;;;;;10.39;62.80;100359.59;1659319;86;21083;-65
2021/11/06 08:16:01;;;;;;;8.28;6.55;;;;;;;10.40;62.84;100366.70;1696204;83;21109;-66
2021/11/06 08:18:29;;;;;;;9.48;6.47;;;;;;;10.53;63.05;100368.72;1719876;83;21069;-64
2021/11/06 08:20:56;;;;;;;7.72;5.92;;;;;;;10.64;62.82;100367.75;1724599;83;21580;-66
2021/11/06 08:23:23;;;;;;;7.45;5.15;;;;;;;10.81;62.72;100369.82;1711963;83;21409;-66
2021/11/06 08:25:50;;;;;;;7.50;5.25;;;;;;;11.02;61.88;100379.83;1695521;84;21081;-66
2021/11/06 08:28:17;;;;;;;8.80;5.62;;;;;;;11.13;61.40;100376.11;1695686;84;21549;-66
2021/11/06 08:30:43;;;;;;;;;;;;;;;11.21;60.46;100372.09;1702640;83;21125;-66
2021/11/06 08:33:10;;;;;;;7.22;5.33;;;;;;;11.21;59.58;100374.28;1696464;83;20111;-66
2021/11/06 08:35:38;;;;;;;10.48;7.65;;;;;;;11.05;59.02;100372.52;1696410;84;21416;-66
2021/11/06 08:38:05;;;;;;;11.63;7.37;;;;;;;11.05;59.49;100371.70;1677916;85;21094;-65
2021/11/06 08:40:31;;;;;;;13.10;10.25;;;;;;;11.21;59.29;100370.72;1680027;84;21038;-65
2021/11/06 08:42:57;;;;;;;25.92;22.32;;;;;;;11.36;59.48;100370.84;1677932;85;21081;-66
2021/11/06 08:45:24;;;;;;;;;;;;;;;11.51;59.02;100371.50;1680333;85;21090;-67
2021/11/06 08:47:50;;;;;;;6.70;4.83;;;;;;;11.61;58.08;100374.30;1684319;84;20130;-66
2021/11/06 08:50:21;;;;;;;15.28;9.43;;;;;;;11.44;57.70;100383.44;1704418;84;21070;-67
2021/11/06 08:52:49;;;;;;;7.22;5.28;;;;;;;11.38;58.04;100381.77;1683776;85;21010;-66
2021/11/06 08:55:16;;;;;;;9.85;6.00;;;;;;;11.18;57.32;100376.16;1725060;83;21482;-66
2021/11/06 08:57:43;;;;;;;8.38;6.15;;;;;;;11.00;57.08;100368.38;1695875;84;21651;-70
2021/11/06 09:00:15;;;;;;;11.80;7.28;;;;;;;11.07;57.59;100378.52;1720777;83;20976;-66
2021/11/06 09:02:41;;;;;;;7.75;5.33;;;;;;;11.27;57.14;100384.12;1701102;84;21090;-66
2021/11/06 09:05:08;;;;;;;;;;;;;;;11.33;56.39;100374.93;1708120;84;21038;-66
2021/11/06 09:07:35;;;;;;;10.13;6.60;;;;;;;11.32;56.47;100372.45;1704269;84;20392;-65
2021/11/06 09:10:07;;;;;;;9.15;6.45;;;;;;;11.20;57.00;100364.98;1705592;84;21317;-66
2021/11/06 09:12:34;;;;;;;9.75;6.25;;;;;;;11.13;56.81;100364.38;1705414;84;21126;-66
2021/11/06 09:15:00;;;;;;;;;;;;;;;10.83;57.35;100368.50;1726480;83;21042;-67
2021/11/06 09:17:28;;;;;;;9.93;7.35;;;;;;;10.57;58.12;100359.79;1708956;83;20136;-67
2021/11/06 09:19:54;;;;;;;9.85;7.42;;;;;;;10.36;59.24;100364.20;1670964;85;21051;-65
2021/11/06 09:22:22;;;;;;;;;;;;;;;10.43;59.33;100353.94;1656714;87;21134;-66
2021/11/06 09:24:49;;;;;;;8.20;6.28;;;;;;;10.54;59.27;100352.14;1684036;84;20136;-67
2021/11/06 09:27:17;;;;;;;7.37;5.08;;;;;;;10.63;59.51;100345.14;1705167;84;21521;-69
2021/11/06 09:29:45;;;;;;;9.88;6.33;;;;;;;10.84;59.06;100358.44;1699498;84;21011;-68
2021/11/06 09:32:12;;;;;;;7.95;5.53;;;;;;;11.05;57.87;100364.88;1698192;84;21463;-68
2021/11/06 09:34:39;;;;;;;8.35;5.72;;;;;;;11.12;57.56;100357.31;1694249;84;21067;-67
2021/11/06 09:37:05;;;;;;;8.28;5.10;;;;;;;11.14;57.61;100355.96;1670831;85;21601;-66
2021/11/06 09:39:33;;;;;;;8.03;5.03;;;;;;;11.25;57.72;100360.41;1671548;86;21074;-67
2021/11/06 09:42:01;;;;;;;7.15;5.12;;;;;;;11.25;57.14;100359.05;1682924;85;21578;-68
2021/11/06 09:44:28;;;;;;;7.83;5.30;;;;;;;11.20;57.79;100359.53;1667490;84;21054;-67
2021/11/06 09:46:54;;;;;;;6.92;5.75;;;;;;;11.36;58.30;100359.95;1685023;84;21134;-66
2021/11/06 09:49:21;;;;;;;9.10;5.62;;;;;;;11.61;57.76;100356.03;1661270;84;21079;-67
2021/11/06 09:51:47;;;;;;;7.15;5.60;;;;;;;11.82;56.83;100361.91;1713588;84;21600;-66
2021/11/06 09:54:14;;;;;;;6.60;4.78;;;;;;;11.76;55.91;100347.95;1703042;84;21075;-68
2021/11/06 09:56:40;;;;;;;6.15;4.58;;;;;;;11.74;56.50;100350.67;1694846;83;21059;-67
2021/11/06 09:59:07;;;;;;;6.03;4.30;;;;;;;11.83;56.33;100351.25;1685220;85;21039;-67
2021/11/06 10:01:33;;;;;;;6.67;4.90;;;;;;;12.00;55.67;100348.36;1687018;84;21703;-67
2021/11/06 10:04:06;;;;;;;;;;;;;;;12.09;55.14;100348.65;1748694;82;21765;-66
2021/11/06 10:06:29;;;;;;;6.08;3.87;;;;;;;12.02;55.12;100348.08;1736259;82;20138;-66
2021/11/06 10:08:56;;;;;;;5.87;3.95;;;;;;;11.78;54.83;100329.97;1730260;82;20984;-67
2021/11/06 10:11:29;;;;;;;5.17;3.80;;;;;;;11.61;54.74;100356.57;1734541;82;21075;-67
2021/11/06 10:14:10;;;;;;;6.50;3.95;;;;;;;11.53;54.28;100343.42;1731733;82;21031;-66
2021/11/06 10:16:53;;;;;;;5.15;3.95;;;;;;;11.55;54.44;100337.18;1718709;82;21444;-66
2021/11/06 10:19:49;;;;;;;5.65;3.80;;;;;;;11.58;53.96;100340.20;1743022;82;21003;-66
2021/11/06 10:22:25;;;;;;;5.70;3.77;;;;;;;11.56;53.62;100340.98;1749594;82;21086;-66
2021/11/06 10:24:51;;;;;;;6.17;3.92;;;;;;;11.58;53.88;100341.56;1748357;82;21054;-65
2021/11/06 10:27:30;;;;;;;5.17;3.92;;;;;;;11.73;53.90;100339.47;1733442;82;21637;-67
2021/11/06 10:30:08;;;;;;;6.37;4.03;;;;;;;11.76;52.91;100328.85;1722626;83;21494;-66
2021/11/06 10:32:36;;;;;;;6.72;4.50;;;;;;;11.59;53.49;100328.19;1745389;82;21632;-65
2021/11/06 10:35:18;;;;;;;5.15;4.00;;;;;;;11.59;53.80;100326.83;1752195;82;21015;-65
2021/11/06 10:37:47;;;;;;;7.75;4.25;;;;;;;11.71;53.97;100344.38;1752964;82;21664;-66
2021/11/06 10:40:14;;;;;;;4.30;3.50;;;;;;;11.79;52.79;100323.44;1712795;83;20974;-66
2021/11/06 10:42:57;;;;;;;7.03;4.00;;;;;;;11.90;53.20;100325.92;1676398;85;21151;-68
2021/11/06 10:45:31;;;;;;;6.33;4.25;;;;;;;12.23;52.47;100324.69;1732586;82;21017;-68
2021/11/06 10:48:07;;;;;;;5.62;3.77;;;;;;;12.52;51.12;100333.77;1744409;82;21082;-67
2021/11/06 10:51:03;;;;;;;6.70;4.20;;;;;;;12.49;51.30;100331.05;1739033;82;20967;-70
2021/11/06 10:53:50;;;;;;;5.10;3.85;;;;;;;12.64;51.37;100335.18;1737924;82;21517;-68
2021/11/06 10:56:29;;;;;;;4.55;3.80;;;;;;;12.84;49.67;100331.09;1742630;82;21055;-68
2021/11/06 10:59:06;;;;;;;7.15;4.40;;;;;;;12.87;49.18;100331.09;1722660;83;21044;-67
2021/11/06 11:01:35;;;;;;;7.47;4.53;;;;;;;12.71;49.17;100322.08;1723970;82;21047;-69
2021/11/06 11:04:12;;;;;;;6.03;4.50;;;;;;;12.69;49.29;100325.61;1736865;82;21070;-67
2021/11/06 11:06:53;;;;;;;6.55;4.45;;;;;;;12.81;49.10;100325.36;1753309;82;20995;-68
2021/11/06 11:09:27;;;;;;;5.95;4.10;;;;;;;12.77;48.84;100323.71;1752549;82;21035;-68
2021/11/06 11:12:00;;;;;;;8.88;5.20;;;;;;;12.66;48.84;100322.59;1725044;82;21022;-70
2021/11/06 11:14:29;;;;;;;6.70;4.33;;;;;;;12.65;48.80;100320.95;1723719;82;21564;-69
2021/11/06 11:17:04;;;;;;;7.35;5.15;;;;;;;12.81;49.49;100318.52;1734619;82;21047;-69
2021/11/06 11:19:40;;;;;;;6.62;4.40;;;;;;;13.15;49.12;100321.55;1729965;82;21010;-69
2021/11/06 11:22:29;;;;;;;7.78;4.95;;;;;;;13.44;48.56;100319.34;1677174;85;21554;-70
2021/11/06 11:24:56;;;;;;;6.60;4.60;;;;;;;13.49;47.80;100317.69;1736210;82;21031;-70
2021/11/06 11:27:24;;;;;;;5.37;4.17;;;;;;;13.59;47.13;100309.46;1747966;82;21035;-69
2021/11/06 11:29:51;;;;;;;6.90;4.28;;;;;;;13.78;46.25;100307.20;1723367;83;21078;-68
2021/11/06 11:32:18;;;;;;;7.20;4.22;;;;;;;13.84;45.72;100312.13;1723662;82;21047;-68
2021/11/06 11:34:46;;;;;;;6.72;4.37;;;;;;;13.55;45.34;100305.64;1725787;82;21019;-69
2021/11/06 11:37:14;;;;;;;5.78;4.50;;;;;;;12.68;46.51;100322.59;1674989;85;21091;-68
2021/11/06 11:39:41;;;;;;;4.97;4.00;;;;;;;11.92;48.32;100320.20;1739255;81;20982;-68